Chomutov, Czech Republic
Current Conditions -  °F | °C
As of 10:00 AM on Thursday 29 Jan 2015 (Local Time) from LKKV Reporting Station
Broken Clouds Broken Clouds  
Wind Chill: 21°   Ceiling: 1800
Heat Index: 28°   Visibility: 6mi
Dew Point: 25°   Wind: 7mph
Humidity: 86%   Direction: 220°SW
Pressure: 29.38"   Gusts: NA
Location:  50.46°N, 13.39°E
Report Text: LKKV 290800Z 22006KT 9999 BKN018 M02/M04 Q0995 R29/750294
Loading
Personal Weather Stations






























Interactive Weather Map New forecast layout! Learn more

10-Day Weather Forecast

Advertisements
Track Severe Weather on mobile